createdAt,value
2022-09-03T00:02:33.856Z,4.01
2022-09-03T00:05:12.337Z,3.97
2022-09-03T00:07:44.284Z,3.90
2022-09-03T00:10:15.649Z,3.87
2022-09-03T00:12:44.472Z,3.75
2022-09-03T00:15:13.008Z,3.62
2022-09-03T00:17:45.473Z,3.54
2022-09-03T00:20:20.313Z,3.50
2022-09-03T00:22:52.181Z,3.53
2022-09-03T00:25:27.590Z,3.52
2022-09-03T00:27:55.445Z,3.46
2022-09-03T00:30:24.576Z,3.48
2022-09-03T00:32:58.033Z,3.42
2022-09-03T00:35:32.222Z,3.36
2022-09-03T00:37:59.465Z,3.32
2022-09-03T00:40:37.614Z,3.29
2022-09-03T00:43:08.545Z,3.30
2022-09-03T00:45:39.768Z,3.33
2022-09-03T00:48:12.746Z,3.31
2022-09-03T00:50:50.474Z,3.27
2022-09-03T00:53:23.443Z,3.30
2022-09-03T00:55:58.948Z,3.32
2022-09-03T00:58:29.942Z,3.36
2022-09-03T01:00:57.268Z,3.43
2022-09-03T01:03:32.596Z,3.37
2022-09-03T01:06:07.622Z,3.34
2022-09-03T01:08:36.672Z,3.35
2022-09-03T01:11:10.710Z,3.32
2022-09-03T01:13:44.778Z,3.34
2022-09-03T01:16:11.789Z,3.38
2022-09-03T01:18:59.448Z,3.40
2022-09-03T01:21:27.063Z,3.40
2022-09-03T01:24:00.287Z,3.37
2022-09-03T01:26:33.013Z,3.36
2022-09-03T01:29:05.781Z,3.34
2022-09-03T01:31:47.784Z,3.35
2022-09-03T01:34:17.629Z,3.33
2022-09-03T01:36:47.604Z,3.31
2022-09-03T01:39:24.124Z,3.31
2022-09-03T01:42:09.418Z,3.25
2022-09-03T01:44:42.096Z,3.19
2022-09-03T01:47:15.123Z,3.10
2022-09-03T01:49:44.792Z,3.10
2022-09-03T01:52:17.793Z,3.06
2022-09-03T01:55:06.635Z,3.07
2022-09-03T01:57:37.253Z,2.98
2022-09-03T02:00:09.662Z,2.94
2022-09-03T02:02:41.304Z,2.88
2022-09-03T02:05:10.047Z,2.82
2022-09-03T02:07:41.293Z,2.78
2022-09-03T02:10:10.081Z,2.71
2022-09-03T02:12:38.588Z,2.68
2022-09-03T02:15:10.189Z,2.66
2022-09-03T02:17:37.013Z,2.59
2022-09-03T02:20:04.566Z,2.53
2022-09-03T02:22:32.853Z,2.53
2022-09-03T02:24:59.913Z,2.54
2022-09-03T02:27:26.833Z,2.51
2022-09-03T02:29:54.185Z,2.50
2022-09-03T02:32:20.984Z,2.50
2022-09-03T02:35:02.772Z,2.56
2022-09-03T02:37:29.740Z,2.65
2022-09-03T02:39:56.625Z,2.73
2022-09-03T02:42:23.492Z,2.74
2022-09-03T02:44:57.968Z,2.80
2022-09-03T02:47:24.799Z,2.88
2022-09-03T02:49:51.587Z,2.87
2022-09-03T02:52:18.542Z,2.92
2022-09-03T02:54:46.081Z,2.92
2022-09-03T02:57:14.370Z,2.97
2022-09-03T02:59:42.031Z,3.04
2022-09-03T03:02:09.008Z,3.13
2022-09-03T03:04:35.923Z,3.17
2022-09-03T03:07:02.766Z,3.19
2022-09-03T03:09:29.575Z,3.18
2022-09-03T03:11:56.515Z,3.13
2022-09-03T03:14:23.766Z,3.14
2022-09-03T03:16:50.835Z,3.14
2022-09-03T03:19:17.999Z,3.20
2022-09-03T03:21:44.910Z,3.19
2022-09-03T03:24:14.950Z,3.20
2022-09-03T03:26:41.827Z,3.25
2022-09-03T03:29:08.698Z,3.29
2022-09-03T03:31:35.739Z,3.31
2022-09-03T03:34:05.766Z,3.33
2022-09-03T03:36:33.359Z,3.34
2022-09-03T03:39:00.596Z,3.37
2022-09-03T03:41:28.892Z,3.42
2022-09-03T03:43:58.194Z,3.47
2022-09-03T03:46:25.553Z,3.51
2022-09-03T03:48:52.755Z,3.54
2022-09-03T03:51:19.826Z,3.59
2022-09-03T03:53:46.673Z,3.61
2022-09-03T03:56:14.280Z,3.66
2022-09-03T03:58:45.400Z,3.69
2022-09-03T04:01:17.487Z,3.76
2022-09-03T04:03:44.633Z,3.80
2022-09-03T04:06:12.397Z,3.82
2022-09-03T04:08:40.034Z,3.79
2022-09-03T04:11:08.107Z,3.82
2022-09-03T04:13:36.005Z,3.86
2022-09-03T04:16:07.241Z,3.95
2022-09-03T04:18:34.384Z,3.99
2022-09-03T04:23:54.711Z,4.16
2022-09-03T04:26:25.777Z,4.20
2022-09-03T04:28:52.639Z,4.28
2022-09-03T04:31:20.227Z,4.33
2022-09-03T04:33:49.099Z,4.38
2022-09-03T04:36:18.707Z,4.46
2022-09-03T04:38:47.816Z,4.52
2022-09-03T04:41:15.948Z,4.60
2022-09-03T04:43:43.541Z,4.70
2022-09-03T04:46:17.600Z,4.80
2022-09-03T04:48:47.691Z,4.87
2022-09-03T04:51:15.137Z,4.99
2022-09-03T04:53:42.805Z,5.10
2022-09-03T04:56:18.707Z,5.21
2022-09-03T04:58:49.346Z,5.25
2022-09-03T05:01:19.398Z,5.43
2022-09-03T05:03:46.527Z,5.53
2022-09-03T05:06:14.700Z,5.61
2022-09-03T05:08:41.548Z,5.73
2022-09-03T05:11:09.093Z,5.82
2022-09-03T05:13:37.189Z,5.87
2022-09-03T05:16:07.053Z,5.91
2022-09-03T05:18:35.923Z,6.08
2022-09-03T05:21:04.019Z,6.18
2022-09-03T05:23:35.524Z,6.33
2022-09-03T05:26:06.959Z,6.44
2022-09-03T05:28:38.723Z,6.53
2022-09-03T05:31:06.969Z,6.62
2022-09-03T05:33:35.476Z,6.68
2022-09-03T05:36:03.433Z,6.73
2022-09-03T05:38:32.447Z,6.87
2022-09-03T05:41:03.216Z,7.00
2022-09-03T05:43:30.581Z,7.09
2022-09-03T05:46:00.993Z,7.14
2022-09-03T05:48:28.728Z,7.31
2022-09-03T05:51:04.058Z,7.44
2022-09-03T05:53:34.142Z,7.53
2022-09-03T05:56:03.579Z,7.60
2022-09-03T05:58:31.296Z,7.75
2022-09-03T06:00:58.242Z,7.95
2022-09-03T06:03:26.401Z,8.04
2022-09-03T06:05:54.447Z,8.04
2022-09-03T06:08:22.056Z,8.11
2022-09-03T06:13:30.720Z,8.25
2022-09-03T06:15:57.901Z,8.32
2022-09-03T06:18:25.476Z,8.49
2022-09-03T06:20:56.305Z,8.68
2022-09-03T06:23:23.812Z,8.78
2022-09-03T06:26:06.872Z,8.87
2022-09-03T06:28:38.157Z,8.94
2022-09-03T06:31:11.289Z,9.05
2022-09-03T06:33:38.700Z,9.14
2022-09-03T06:36:08.872Z,9.13
2022-09-03T06:38:38.945Z,9.31
2022-09-03T06:41:05.971Z,9.29
2022-09-03T06:43:34.558Z,9.46
2022-09-03T06:46:02.398Z,9.57
2022-09-03T06:48:30.328Z,9.76
2022-09-03T06:50:58.307Z,9.90
2022-09-03T06:53:35.287Z,10.09
2022-09-03T06:56:03.405Z,9.83
2022-09-03T06:58:37.988Z,9.83
2022-09-03T07:01:08.143Z,9.98
2022-09-03T07:03:36.992Z,9.97
2022-09-03T07:06:05.319Z,10.24
2022-09-03T07:08:33.068Z,10.65
2022-09-03T07:11:00.585Z,11.01
2022-09-03T07:13:34.344Z,10.99
2022-09-03T07:16:01.427Z,11.03
2022-09-03T07:18:28.357Z,10.91
2022-09-03T07:21:01.291Z,10.47
2022-09-03T07:23:31.788Z,10.44
2022-09-03T07:25:59.684Z,10.36
2022-09-03T07:28:29.729Z,10.60
2022-09-03T07:31:04.096Z,10.92
2022-09-03T07:33:33.785Z,10.85
2022-09-03T07:36:08.239Z,10.75
2022-09-03T07:38:35.353Z,10.93
2022-09-03T07:41:03.068Z,11.22
2022-09-03T07:43:30.683Z,10.79
2022-09-03T07:45:58.207Z,10.66
2022-09-03T07:48:25.191Z,10.91
2022-09-03T07:50:57.937Z,11.11
2022-09-03T07:53:28.570Z,11.34
2022-09-03T07:56:01.339Z,11.54
2022-09-03T07:58:32.623Z,11.78
2022-09-03T08:00:59.698Z,11.92
2022-09-03T08:03:26.721Z,12.17
2022-09-03T08:08:45.829Z,12.67
2022-09-03T08:11:16.456Z,13.29
2022-09-03T08:13:45.528Z,13.61
2022-09-03T08:16:13.432Z,13.69
2022-09-03T08:18:40.584Z,13.57
2022-09-03T08:21:09.818Z,13.42
2022-09-03T08:23:37.689Z,13.96
2022-09-03T08:26:04.802Z,14.51
2022-09-03T08:28:33.121Z,14.90
2022-09-03T08:31:22.447Z,14.89
2022-09-03T08:33:51.466Z,15.26
2022-09-03T08:36:19.356Z,15.34
2022-09-03T08:38:52.609Z,15.53
2022-09-03T08:41:34.312Z,15.10
2022-09-03T08:44:20.165Z,14.22
2022-09-03T08:46:51.683Z,14.67
2022-09-03T08:49:21.629Z,15.82
2022-09-03T08:51:49.339Z,16.26
2022-09-03T08:54:16.316Z,16.07
2022-09-03T08:56:46.063Z,16.49
2022-09-03T08:59:14.329Z,16.30
2022-09-03T09:02:03.722Z,16.24
2022-09-03T09:04:41.571Z,16.86
2022-09-03T09:07:08.520Z,16.20
2022-09-03T09:09:49.183Z,16.33
2022-09-03T09:12:21.185Z,16.30
2022-09-03T09:14:56.595Z,17.20
2022-09-03T09:17:42.497Z,17.81
2022-09-03T09:20:21.450Z,17.88
2022-09-03T09:22:50.002Z,17.79
2022-09-03T09:25:21.205Z,17.55
2022-09-03T09:27:52.048Z,17.28
2022-09-03T09:30:19.293Z,17.47
2022-09-03T09:32:47.462Z,17.56
2022-09-03T09:35:17.084Z,18.26
2022-09-03T09:37:51.300Z,18.42
2022-09-03T09:40:27.001Z,19.10
2022-09-03T09:43:11.805Z,19.69
2022-09-03T09:48:23.899Z,19.89
2022-09-03T09:50:51.036Z,20.51
2022-09-03T09:53:18.943Z,20.12
2022-09-03T09:55:53.190Z,20.43
2022-09-03T09:58:21.031Z,20.86
2022-09-03T10:01:13.557Z,19.38
2022-09-03T10:03:41.698Z,17.62
2022-09-03T10:06:31.403Z,16.49
2022-09-03T10:09:08.364Z,15.77
2022-09-03T10:11:40.502Z,15.36
2022-09-03T10:14:09.664Z,16.64
2022-09-03T10:16:38.141Z,17.95
2022-09-03T10:19:05.044Z,19.29
2022-09-03T10:21:50.519Z,19.87
2022-09-03T10:24:42.653Z,17.53
2022-09-03T10:27:11.428Z,16.34
2022-09-03T10:29:39.432Z,15.64
2022-09-03T10:32:25.898Z,15.46
2022-09-03T10:35:12.849Z,17.02
2022-09-03T10:37:52.077Z,17.15
2022-09-03T10:40:30.713Z,16.64
2022-09-03T10:43:05.172Z,15.82
2022-09-03T10:45:35.177Z,15.02
2022-09-03T10:48:06.158Z,14.59
2022-09-03T10:50:53.235Z,14.54
2022-09-03T10:53:38.795Z,14.40
2022-09-03T10:56:14.160Z,14.19
2022-09-03T10:58:53.431Z,14.21
2022-09-03T11:01:39.943Z,15.06
2022-09-03T11:04:25.956Z,15.75
2022-09-03T11:06:54.522Z,16.95
2022-09-03T11:09:31.606Z,17.37
2022-09-03T11:12:02.689Z,19.85
2022-09-03T11:14:38.653Z,21.44
2022-09-03T11:17:11.308Z,21.32
2022-09-03T11:19:41.361Z,20.03
2022-09-03T11:22:09.353Z,21.01
2022-09-03T11:24:38.684Z,22.16
2022-09-03T11:27:06.170Z,22.91
2022-09-03T11:29:42.856Z,21.43
2022-09-03T11:32:16.933Z,19.18
2022-09-03T11:34:48.540Z,18.29
2022-09-03T11:37:21.409Z,18.91
2022-09-03T11:39:54.523Z,19.11
2022-09-03T11:42:30.116Z,18.60
2022-09-03T11:45:00.197Z,18.82
2022-09-03T11:47:43.316Z,18.62
2022-09-03T11:50:24.361Z,18.56
2022-09-03T11:52:53.419Z,19.38
2022-09-03T11:55:37.559Z,19.55
2022-09-03T11:58:19.855Z,18.91
2022-09-03T12:00:47.387Z,21.77
2022-09-03T12:03:16.484Z,23.77
2022-09-03T12:05:54.188Z,22.74
2022-09-03T12:08:27.203Z,20.20
2022-09-03T12:11:11.239Z,19.12
2022-09-03T12:14:00.768Z,18.41
2022-09-03T12:16:31.430Z,17.61
2022-09-03T12:19:01.785Z,17.04
2022-09-03T12:24:15.535Z,17.93
2022-09-03T12:26:42.837Z,17.82
2022-09-03T12:29:27.664Z,17.06
2022-09-03T12:31:56.615Z,16.39
2022-09-03T12:34:23.865Z,16.36
2022-09-03T12:36:53.208Z,16.42
2022-09-03T12:42:15.966Z,16.09
2022-09-03T12:44:42.817Z,16.01
2022-09-03T12:50:05.618Z,15.63
2022-09-03T12:52:34.047Z,15.63
2022-09-03T12:55:01.080Z,15.62
2022-09-03T12:57:33.267Z,16.61
2022-09-03T13:00:01.192Z,18.43
2022-09-03T13:05:17.562Z,16.98
2022-09-03T13:07:46.930Z,16.53
2022-09-03T13:10:26.247Z,16.15
2022-09-03T13:12:58.831Z,17.64
2022-09-03T13:15:25.882Z,18.85
2022-09-03T13:18:03.909Z,18.09
2022-09-03T13:20:47.164Z,17.28
2022-09-03T13:23:17.245Z,18.20
2022-09-03T13:26:07.346Z,17.79
2022-09-03T13:28:34.330Z,17.53
2022-09-03T13:31:07.349Z,16.83
2022-09-03T13:33:38.936Z,16.48
2022-09-03T13:36:13.412Z,16.22
2022-09-03T13:38:51.960Z,16.13
2022-09-03T13:41:24.954Z,16.23
2022-09-03T13:43:53.900Z,16.21
2022-09-03T13:46:36.970Z,16.17
2022-09-03T13:49:34.434Z,18.63
2022-09-03T13:52:04.999Z,21.98
2022-09-03T13:54:48.979Z,20.17
2022-09-03T13:57:25.568Z,19.80
2022-09-03T14:00:00.998Z,18.94
2022-09-03T14:02:48.362Z,18.09
2022-09-03T14:05:20.260Z,18.44
2022-09-03T14:08:09.576Z,17.76
2022-09-03T14:10:52.694Z,17.22
2022-09-03T14:13:23.126Z,16.73
2022-09-03T14:16:08.895Z,16.58
2022-09-03T14:18:38.169Z,17.27
2022-09-03T14:21:30.172Z,17.03
2022-09-03T14:24:06.362Z,16.69
2022-09-03T14:26:42.003Z,16.53
2022-09-03T14:29:15.242Z,16.38
2022-09-03T14:31:59.752Z,16.35
2022-09-03T14:34:36.272Z,17.36
2022-09-03T14:37:06.202Z,18.15
2022-09-03T14:39:36.232Z,18.25
2022-09-03T14:42:25.955Z,17.54
2022-09-03T14:50:58.175Z,15.69
2022-09-03T14:53:36.505Z,15.31
2022-09-03T14:56:04.983Z,15.12
2022-09-03T14:58:58.721Z,14.98
2022-09-03T15:01:39.383Z,14.92
2022-09-03T15:04:14.261Z,14.96
2022-09-03T15:06:45.191Z,14.88
2022-09-03T15:09:17.585Z,14.90
2022-09-03T15:12:06.785Z,15.18
2022-09-03T15:14:45.656Z,15.37
2022-09-03T15:20:35.990Z,13.87
2022-09-03T15:23:05.108Z,13.67
2022-09-03T15:25:43.842Z,14.55
2022-09-03T15:28:13.608Z,16.73
2022-09-03T15:37:32.988Z,14.11
2022-09-03T15:40:11.164Z,13.67
2022-09-03T15:42:39.145Z,13.37
2022-09-03T15:45:07.669Z,13.12
2022-09-03T15:50:34.459Z,12.77
2022-09-03T15:53:01.693Z,12.61
2022-09-03T15:55:36.349Z,12.46
2022-09-03T15:58:22.063Z,12.27
2022-09-03T16:01:03.638Z,12.12
2022-09-03T16:06:21.146Z,11.91
2022-09-03T16:09:11.096Z,11.88
2022-09-03T16:11:41.078Z,11.79
2022-09-03T16:14:31.707Z,11.66
2022-09-03T16:16:58.734Z,11.56
2022-09-03T16:19:26.060Z,11.49
2022-09-03T16:22:02.789Z,11.44
2022-09-03T16:24:49.408Z,11.45
2022-09-03T16:27:29.473Z,11.43
2022-09-03T16:30:02.014Z,11.43
2022-09-03T16:32:33.772Z,11.39
2022-09-03T16:35:04.758Z,11.31
2022-09-03T16:37:36.572Z,11.27
2022-09-03T16:40:25.973Z,11.21
2022-09-03T16:43:01.440Z,11.07
2022-09-03T16:45:35.378Z,10.97
2022-09-03T16:48:10.359Z,10.88
2022-09-03T16:50:42.029Z,10.88
2022-09-03T16:53:30.585Z,10.92
2022-09-03T16:56:09.519Z,10.96
2022-09-03T16:58:49.412Z,10.96
2022-09-03T17:01:35.600Z,10.87
2022-09-03T17:04:14.986Z,10.77
2022-09-03T17:06:44.928Z,10.67
2022-09-03T17:09:15.268Z,10.61
2022-09-03T17:11:42.263Z,10.57
2022-09-03T17:14:28.143Z,10.52
2022-09-03T17:17:13.828Z,10.56
2022-09-03T17:19:49.952Z,10.61
2022-09-03T17:22:34.405Z,10.68
2022-09-03T17:25:08.739Z,10.70
2022-09-03T17:27:45.373Z,10.74
2022-09-03T17:30:15.212Z,10.78
2022-09-03T17:32:42.052Z,10.87
2022-09-03T17:35:26.057Z,10.90
2022-09-03T17:37:56.731Z,10.89
2022-09-03T17:40:43.896Z,10.86
2022-09-03T17:43:17.005Z,10.93
2022-09-03T17:45:52.305Z,10.97
2022-09-03T17:48:38.047Z,10.79
2022-09-03T17:51:17.749Z,10.58
2022-09-03T17:54:13.933Z,10.57
2022-09-03T17:56:40.897Z,10.56
2022-09-03T17:59:26.264Z,10.58
2022-09-03T18:01:56.051Z,10.59
2022-09-03T18:04:30.082Z,10.61
2022-09-03T18:06:58.570Z,10.63
2022-09-03T18:09:27.316Z,10.64
2022-09-03T18:11:57.273Z,10.70
2022-09-03T18:14:29.251Z,10.69
2022-09-03T18:17:03.279Z,10.59
2022-09-03T18:19:58.154Z,10.46
2022-09-03T18:22:45.270Z,10.34
2022-09-03T18:25:35.295Z,10.22
2022-09-03T18:28:26.265Z,10.08
2022-09-03T18:31:17.499Z,10.00
2022-09-03T18:34:10.359Z,9.92
2022-09-03T18:36:55.676Z,9.87
2022-09-03T18:39:47.525Z,9.80
2022-09-03T18:46:17.561Z,9.56
2022-09-03T18:48:57.448Z,9.49
2022-09-03T18:51:48.751Z,9.45
2022-09-03T18:55:07.262Z,9.42
2022-09-03T19:01:16.797Z,9.52
2022-09-03T19:04:05.530Z,9.67
2022-09-03T19:06:51.064Z,9.72
2022-09-03T19:09:37.924Z,9.83
2022-09-03T19:12:38.854Z,9.86
2022-09-03T19:15:30.550Z,9.90
2022-09-03T19:18:29.806Z,9.96
2022-09-03T19:21:30.679Z,10.03
2022-09-03T19:24:18.055Z,10.07
2022-09-03T19:27:51.729Z,10.06
2022-09-03T19:30:42.242Z,10.05
2022-09-03T19:33:35.727Z,9.99
2022-09-03T19:36:24.584Z,9.99
2022-09-03T19:39:22.275Z,10.06
2022-09-03T19:42:11.871Z,10.06
2022-09-03T19:45:16.290Z,10.11
2022-09-03T19:48:05.133Z,10.08
2022-09-03T19:50:51.233Z,9.99
2022-09-03T19:53:42.007Z,9.93
2022-09-03T19:56:47.621Z,9.88
2022-09-03T19:59:39.852Z,9.85
2022-09-03T20:02:30.173Z,9.75
2022-09-03T20:05:17.393Z,9.72
2022-09-03T20:08:03.602Z,9.65
2022-09-03T20:10:30.466Z,9.60
2022-09-03T20:13:16.318Z,9.59
2022-09-03T20:16:05.050Z,9.53
2022-09-03T20:18:34.905Z,9.54
2022-09-03T20:21:20.562Z,9.55
2022-09-03T20:23:51.392Z,9.58
2022-09-03T20:26:50.848Z,9.57
2022-09-03T20:29:17.783Z,9.54
2022-09-03T20:31:44.665Z,9.53
2022-09-03T20:34:22.263Z,9.51
2022-09-03T20:37:05.674Z,9.50
2022-09-03T20:39:35.649Z,9.44
2022-09-03T20:42:08.312Z,9.41
2022-09-03T20:44:37.959Z,9.38
2022-09-03T20:47:23.675Z,9.41
2022-09-03T20:50:40.325Z,9.41
2022-09-03T20:53:30.359Z,9.42
2022-09-03T20:56:13.456Z,9.43
2022-09-03T20:58:52.649Z,9.40
2022-09-03T21:01:34.835Z,9.40
2022-09-03T21:04:11.030Z,9.38
2022-09-03T21:06:47.218Z,9.38
2022-09-03T21:09:20.138Z,9.42
2022-09-03T21:12:19.456Z,9.45
2022-09-03T21:14:55.512Z,9.45
2022-09-03T21:17:28.511Z,9.41
2022-09-03T21:20:05.267Z,9.41
2022-09-03T21:22:58.886Z,9.40
2022-09-03T21:25:30.654Z,9.40
2022-09-03T21:28:04.369Z,9.39
2022-09-03T21:30:31.680Z,9.32
2022-09-03T21:33:27.784Z,9.25
2022-09-03T21:35:55.229Z,9.17
2022-09-03T21:38:26.357Z,9.11
2022-09-03T21:41:00.982Z,9.05
2022-09-03T21:49:35.544Z,8.72
2022-09-03T21:52:06.603Z,8.70
2022-09-03T21:54:34.276Z,8.73
2022-09-03T21:57:06.790Z,8.80
2022-09-03T21:59:33.742Z,8.83
2022-09-03T22:02:22.475Z,8.83
2022-09-03T22:04:50.490Z,8.85
2022-09-03T22:07:20.935Z,8.85
2022-09-03T22:10:06.633Z,8.84
2022-09-03T22:12:52.219Z,8.82
2022-09-03T22:15:19.404Z,8.72
2022-09-03T22:17:49.426Z,8.64
2022-09-03T22:20:18.441Z,8.57
2022-09-03T22:22:56.725Z,8.52
2022-09-03T22:25:25.080Z,8.43
2022-09-03T22:27:58.653Z,8.40
2022-09-03T22:30:25.566Z,8.34
2022-09-03T22:33:04.730Z,8.24
2022-09-03T22:35:37.436Z,8.16
2022-09-03T22:38:22.795Z,8.12
2022-09-03T22:40:52.803Z,8.04
2022-09-03T22:43:24.794Z,7.98
2022-09-03T22:45:57.829Z,7.91
2022-09-03T22:48:24.822Z,7.83
2022-09-03T22:50:58.607Z,7.63
2022-09-03T22:53:25.396Z,7.44
2022-09-03T22:55:59.398Z,7.30
2022-09-03T22:58:28.858Z,7.19
2022-09-03T23:01:04.990Z,7.10
2022-09-03T23:03:37.151Z,7.09
2022-09-03T23:06:05.379Z,7.08
2022-09-03T23:08:37.160Z,7.03
2022-09-03T23:11:03.965Z,7.01
2022-09-03T23:13:35.476Z,6.99
2022-09-03T23:16:21.163Z,6.98
2022-09-03T23:18:48.118Z,6.93
2022-09-03T23:21:23.232Z,6.98
2022-09-03T23:24:06.040Z,7.04
2022-09-03T23:26:36.668Z,7.11
2022-09-03T23:29:10.170Z,7.07
2022-09-03T23:31:37.465Z,7.06
2022-09-03T23:34:04.588Z,7.05
2022-09-03T23:37:32.032Z,6.97
2022-09-03T23:39:53.641Z,6.92
2022-09-03T23:42:32.144Z,6.95
2022-09-03T23:45:18.351Z,6.98
2022-09-03T23:48:00.151Z,6.95
2022-09-03T23:50:29.632Z,6.88
2022-09-03T23:53:18.916Z,6.83
2022-09-03T23:56:25.684Z,6.81
2022-09-03T23:59:07.745Z,6.79
